Time;durP1;ratioP1;P1;durP2;ratioP2;P2;SDS_P1;SDS_P2;PMS_P1;PMS_P2;Temp;Humidity;BMP_temperature;BMP_pressure;BME280_temperature;BME280_humidity;BME280_pressure;Samples;Min_cycle;Max_cycle;Signal;HPM_P1;HPM_P2
2021/05/31 00:00:06;;;;;;;6.68;3.33;;;;;;;20.80;37.86;102554.06;4173400;28;20048;-42
2021/05/31 00:02:06;;;;;;;5.60;3.45;;;;;;;20.90;37.52;102550.66;4172761;28;20060;-42
2021/05/31 00:04:07;;;;;;;7.70;3.33;;;;;;;20.75;37.58;102542.03;4175310;28;20483;-42
2021/05/31 00:06:07;;;;;;;8.05;3.95;;;;;;;20.82;37.62;102546.34;4174267;28;20036;-42
2021/05/31 00:08:08;;;;;;;8.02;3.10;;;;;;;20.73;37.86;102536.72;4176565;28;20040;-42
2021/05/31 00:10:09;;;;;;;10.73;4.03;;;;;;;20.70;37.71;102537.22;4175189;28;20109;-42
2021/05/31 00:12:15;;;;;;;4.60;3.03;;;;;;;20.75;37.74;102542.03;4175875;28;20060;-41
2021/05/31 00:14:16;;;;;;;6.03;3.60;;;;;;;20.75;37.82;102542.03;4181769;28;20083;-42
2021/05/31 00:16:16;;;;;;;5.38;3.25;;;;;;;20.75;37.58;102547.59;4178093;28;20041;-41
2021/05/31 00:18:17;;;;;;;4.97;3.28;;;;;;;20.72;37.96;102539.75;4179400;28;20506;-41
2021/05/31 00:20:18;;;;;;;6.57;3.78;;;;;;;20.73;37.67;102541.41;4177968;28;20035;-41
2021/05/31 00:22:21;;;;;;;3.75;3.08;;;;;;;20.70;37.62;102541.91;4177999;28;20546;-41
2021/05/31 00:24:22;;;;;;;4.40;3.30;;;;;;;20.70;37.67;102539.13;4193210;28;20039;-41
2021/05/31 00:26:22;;;;;;;6.65;3.50;;;;;;;20.71;37.72;102533.31;4179206;28;20112;-41
2021/05/31 00:28:23;;;;;;;5.10;3.03;;;;;;;20.67;37.66;102527.41;4179580;28;20048;-41
2021/05/31 00:30:24;;;;;;;5.55;3.90;;;;;;;20.57;38.04;102532.78;4178629;28;20577;-42
2021/05/31 00:32:24;;;;;;;5.03;3.10;;;;;;;20.56;37.87;102527.44;4178991;28;20025;-42
2021/05/31 00:34:25;;;;;;;8.45;3.80;;;;;;;20.64;37.89;102532.66;4178120;28;20064;-42
2021/05/31 00:36:27;;;;;;;3.97;3.42;;;;;;;20.64;37.88;102527.09;4178738;28;20110;-41
2021/05/31 00:38:27;;;;;;;4.60;3.63;;;;;;;20.54;38.25;102529.63;4178716;28;20033;-42
2021/05/31 00:40:28;;;;;;;4.35;3.95;;;;;;;20.51;38.18;102528.19;4178993;28;20102;-41
2021/05/31 00:42:28;;;;;;;5.97;3.50;;;;;;;20.57;37.92;102529.13;4177393;28;20063;-41
2021/05/31 00:44:29;;;;;;;5.25;3.70;;;;;;;20.58;38.02;102525.31;4177194;28;20049;-41
2021/05/31 00:46:29;;;;;;;5.72;3.58;;;;;;;20.55;37.79;102520.22;4179052;28;20361;-41
2021/05/31 00:48:30;;;;;;;5.80;4.03;;;;;;;20.60;37.69;102526.72;4178585;28;20039;-41
2021/05/31 00:50:31;;;;;;;5.05;3.60;;;;;;;20.54;37.93;102524.06;4178188;28;20037;-41
2021/05/31 00:52:32;;;;;;;8.63;4.10;;;;;;;20.54;37.81;102521.28;4179748;28;20419;-42
2021/05/31 00:54:33;;;;;;;4.70;3.65;;;;;;;20.38;38.26;102509.03;4177832;28;20292;-41
2021/05/31 00:56:34;;;;;;;4.65;3.38;;;;;;;20.47;37.97;102522.28;4178899;28;20064;-42
2021/05/31 00:58:36;;;;;;;4.70;3.40;;;;;;;20.45;38.05;102521.72;4178182;28;20029;-42
2021/05/31 01:03:34;;;;;;;4.38;3.55;;;;;;;20.33;38.23;102498.66;4174137;28;20140;-42
2021/05/31 01:05:34;;;;;;;3.65;3.28;;;;;;;20.44;38.04;102517.22;4177740;28;20037;-42
2021/05/31 01:07:49;;;;;;;6.53;4.07;;;;;;;20.44;38.12;102510.84;4178484;28;20555;-42
2021/05/31 01:10:07;;;;;;;8.32;3.72;;;;;;;20.42;38.18;102513.00;4178862;28;20026;-42
2021/05/31 01:12:20;;;;;;;7.70;3.80;;;;;;;20.36;38.26;102514.00;4177716;28;20037;-42
2021/05/31 01:14:59;;;;;;;5.68;3.45;;;;;;;20.43;37.87;102515.53;4177593;28;20044;-43
2021/05/31 01:17:23;;;;;;;6.03;3.72;;;;;;;20.32;38.15;102516.44;4178545;28;20029;-43
2021/05/31 01:19:48;;;;;;;4.05;3.40;;;;;;;20.36;38.01;102520.41;4177214;28;20410;-42
2021/05/31 01:22:01;;;;;;;5.40;3.55;;;;;;;20.33;38.32;102520.06;4172480;28;20075;-42
2021/05/31 01:24:19;;;;;;;5.68;3.53;;;;;;;20.37;38.06;102518.47;4177945;28;20088;-42
2021/05/31 01:26:24;;;;;;;3.67;3.35;;;;;;;20.35;38.15;102513.16;4177376;28;20052;-41
2021/05/31 01:28:52;;;;;;;3.53;3.25;;;;;;;20.30;38.19;102522.25;4176736;28;20041;-42
2021/05/31 01:33:07;;;;;;;6.88;3.45;;;;;;;20.24;38.05;102519.63;4778380;22;20057;-40
2021/05/31 01:35:11;;;;;;;3.88;3.58;;;;;;;20.23;38.20;102517.94;4157918;28;20037;-40
2021/05/31 01:37:17;;;;;;;4.63;3.47;;;;;;;20.21;38.39;102520.94;4151951;28;20042;-41
2021/05/31 01:39:22;;;;;;;5.05;3.53;;;;;;;20.21;38.16;102515.41;4157569;28;20361;-42
2021/05/31 01:41:24;;;;;;;5.75;3.67;;;;;;;20.12;38.37;102509.38;4154377;28;20088;-42
2021/05/31 01:43:27;;;;;;;5.30;3.65;;;;;;;20.16;38.34;102514.44;4152250;28;20541;-42
2021/05/31 01:45:27;;;;;;;5.07;4.03;;;;;;;20.20;38.26;102515.63;4159952;28;20057;-41
2021/05/31 01:47:29;;;;;;;5.25;4.00;;;;;;;20.17;38.34;102510.56;4151679;28;20065;-44
2021/05/31 01:49:30;;;;;;;4.85;3.58;;;;;;;20.11;38.47;102509.63;4151722;28;20061;-41
2021/05/31 01:51:31;;;;;;;5.00;4.13;;;;;;;20.15;38.22;102505.25;4153616;28;20041;-41
2021/05/31 01:53:33;;;;;;;4.68;3.95;;;;;;;20.13;38.36;102510.22;4152354;28;20406;-41
2021/05/31 01:55:34;;;;;;;4.85;3.50;;;;;;;20.12;38.54;102508.53;4146364;28;20056;-42
2021/05/31 01:57:36;;;;;;;7.57;3.80;;;;;;;20.15;38.25;102510.00;4150616;28;20037;-40
2021/05/31 01:59:37;;;;;;;4.57;3.90;;;;;;;20.11;38.32;102507.69;4150374;28;20029;-41
2021/05/31 02:01:38;;;;;;;4.18;3.75;;;;;;;20.11;38.42;102506.84;4153178;28;20480;-41
2021/05/31 02:03:39;;;;;;;5.32;3.58;;;;;;;20.09;38.29;102511.81;4151359;28;20034;-41
2021/05/31 02:05:39;;;;;;;5.13;3.72;;;;;;;20.02;38.34;102513.88;4151961;28;20125;-41
2021/05/31 02:07:40;;;;;;;4.47;3.83;;;;;;;20.16;38.29;102511.66;4151928;28;20026;-40
2021/05/31 02:09:40;;;;;;;5.53;3.70;;;;;;;20.13;38.15;102511.06;4151503;28;20405;-40
2021/05/31 02:12:01;;;;;;;4.00;3.63;;;;;;;20.07;38.36;102502.88;4150299;28;20044;-40
2021/05/31 02:14:07;;;;;;;3.20;2.90;;;;;;;20.05;38.39;102500.34;4151732;28;20128;-40
2021/05/31 02:16:33;;;;;;;5.25;3.05;;;;;;;20.02;38.39;102497.19;4152572;28;20514;-42
2021/05/31 02:18:40;;;;;;;3.47;3.08;;;;;;;20.08;38.09;102490.66;4155628;28;20040;-40
2021/05/31 02:20:44;;;;;;;6.13;3.78;;;;;;;19.95;38.41;102486.22;4151951;28;20083;-41
2021/05/31 02:22:51;;;;;;;3.60;3.17;;;;;;;19.98;38.50;102493.25;4157059;28;20072;-41
2021/05/31 02:24:54;;;;;;;3.88;3.38;;;;;;;19.99;38.39;102490.22;4151013;28;20030;-41
2021/05/31 02:26:56;;;;;;;4.90;3.75;;;;;;;19.91;38.67;102488.66;4152213;28;20482;-41
2021/05/31 02:28:57;;;;;;;6.53;3.95;;;;;;;19.90;38.54;102486.13;4155502;28;20033;-41
2021/05/31 02:31:01;;;;;;;5.38;3.47;;;;;;;19.92;38.64;102487.56;4152743;28;20034;-41
2021/05/31 02:33:05;;;;;;;5.72;3.63;;;;;;;19.90;38.43;102488.91;4158543;28;20049;-41
2021/05/31 02:35:11;;;;;;;4.63;3.47;;;;;;;19.98;38.46;102490.47;4163629;28;20439;-41
2021/05/31 02:37:13;;;;;;;4.10;2.88;;;;;;;20.00;38.51;102488.28;4165634;28;20530;-41
2021/05/31 02:39:15;;;;;;;4.22;3.40;;;;;;;19.91;38.53;102494.22;4164689;28;20399;-41
2021/05/31 02:41:15;;;;;;;3.55;3.10;;;;;;;19.88;38.52;102493.84;4161984;28;20037;-41
2021/05/31 02:43:16;;;;;;;5.38;3.17;;;;;;;19.88;38.58;102491.94;4170845;28;20473;-41
2021/05/31 02:45:18;;;;;;;6.18;3.17;;;;;;;19.77;38.73;102479.72;4164370;28;20037;-41
2021/05/31 02:47:19;;;;;;;2.90;2.60;;;;;;;19.83;38.58;102480.66;4166534;28;20490;-41
2021/05/31 02:49:20;;;;;;;4.20;3.53;;;;;;;19.82;38.59;102487.34;4161569;28;20041;-41
2021/05/31 02:51:20;;;;;;;3.92;3.47;;;;;;;19.77;38.65;102493.63;4161210;28;20041;-42
2021/05/31 02:53:20;;;;;;;5.13;3.60;;;;;;;19.86;38.48;102487.72;4160561;28;20033;-42
2021/05/31 02:55:23;;;;;;;4.53;3.33;;;;;;;19.85;38.49;102486.00;4166654;28;20037;-41
2021/05/31 02:57:24;;;;;;;5.03;3.65;;;;;;;19.83;38.51;102479.84;4163566;28;20067;-41
2021/05/31 02:59:24;;;;;;;4.20;3.20;;;;;;;19.82;38.73;102479.00;4168249;28;20033;-41
2021/05/31 03:01:24;;;;;;;3.90;3.47;;;;;;;19.80;38.68;102478.38;4165860;28;20036;-41
2021/05/31 03:03:25;;;;;;;5.15;3.58;;;;;;;19.83;38.63;102477.06;4159554;28;20037;-41
2021/05/31 03:05:29;;;;;;;5.30;3.35;;;;;;;19.81;38.79;102480.06;4162051;28;20099;-41
2021/05/31 03:07:29;;;;;;;3.85;3.50;;;;;;;19.82;38.64;102480.91;4163996;28;20041;-42
2021/05/31 03:09:29;;;;;;;6.82;3.60;;;;;;;19.79;38.78;102476.72;4165500;28;20048;-41
2021/05/31 03:11:30;;;;;;;4.65;3.28;;;;;;;19.80;38.40;102478.38;4165841;28;20061;-41
2021/05/31 03:13:30;;;;;;;3.85;3.38;;;;;;;19.82;38.34;102475.34;4163784;28;20036;-41
2021/05/31 03:15:31;;;;;;;4.15;3.35;;;;;;;19.73;38.69;102470.19;4170561;28;20261;-41
2021/05/31 03:17:32;;;;;;;6.63;3.40;;;;;;;19.48;38.77;102437.16;4163267;28;20040;-41
2021/05/31 03:19:32;;;;;;;4.72;3.13;;;;;;;19.71;38.85;102474.28;4159548;28;20037;-40
2021/05/31 03:21:32;;;;;;;3.38;3.08;;;;;;;19.74;38.73;102479.34;4160906;28;20387;-40
2021/05/31 03:23:33;;;;;;;4.30;3.05;;;;;;;19.75;38.59;102484.66;4167285;28;20033;-41
2021/05/31 03:25:33;;;;;;;4.15;3.42;;;;;;;19.74;38.74;102484.91;4167362;28;20502;-41
2021/05/31 03:27:34;;;;;;;4.53;3.38;;;;;;;19.66;38.65;102477.81;4163802;28;20084;-40
2021/05/31 03:29:35;;;;;;;3.85;3.40;;;;;;;19.62;38.73;102478.53;4163113;28;20041;-41
2021/05/31 03:31:35;;;;;;;4.53;3.53;;;;;;;19.64;38.95;102487.50;4162173;28;20028;-41
2021/05/31 03:33:36;;;;;;;4.30;3.53;;;;;;;19.72;38.51;102489.88;4161126;28;20041;-40
2021/05/31 03:35:36;;;;;;;3.55;3.25;;;;;;;19.65;38.68;102489.16;4161851;28;20036;-40
2021/05/31 03:37:38;;;;;;;3.53;3.08;;;;;;;19.67;38.81;102495.34;4164889;28;20110;-41
2021/05/31 03:39:38;;;;;;;4.40;4.00;;;;;;;19.63;38.80;102492.19;4162159;28;20053;-41
2021/05/31 03:41:39;;;;;;;4.97;3.83;;;;;;;19.65;38.85;102494.72;4158201;28;20025;-41
2021/05/31 03:43:39;;;;;;;3.83;3.53;;;;;;;19.63;38.72;102497.75;4164291;28;20029;-41
2021/05/31 03:45:40;;;;;;;3.10;2.90;;;;;;;19.60;38.60;102479.66;4167641;28;20055;-40
2021/05/31 03:47:40;;;;;;;5.07;4.07;;;;;;;19.59;38.97;102491.84;4169157;28;20037;-40
2021/05/31 03:49:40;;;;;;;3.75;3.15;;;;;;;19.60;38.91;102495.44;4161633;28;20463;-41
2021/05/31 03:51:42;;;;;;;4.18;3.65;;;;;;;19.59;38.74;102500.16;4162956;28;20033;-40
2021/05/31 03:53:42;;;;;;;4.30;3.35;;;;;;;19.60;38.70;102484.34;4165180;28;20068;-40
2021/05/31 03:55:42;;;;;;;5.43;3.22;;;;;;;19.58;38.89;102497.63;4165145;28;20030;-41
2021/05/31 03:57:43;;;;;;;4.20;3.50;;;;;;;19.48;39.12;102495.47;4170425;28;20048;-41
2021/05/31 03:59:47;;;;;;;4.00;2.90;;;;;;;19.48;38.86;102495.47;4161299;28;20100;-41
2021/05/31 04:01:48;;;;;;;3.25;2.95;;;;;;;19.57;38.64;102491.25;4159566;28;20033;-41
2021/05/31 04:03:49;;;;;;;3.75;3.42;;;;;;;19.60;38.71;102487.13;4163481;28;20029;-41
2021/05/31 04:12:44;;;;;;;4.05;3.15;;;;;;;19.59;38.64;102491.84;4159586;28;20060;-41
2021/05/31 04:14:44;;;;;;;3.80;3.50;;;;;;;19.51;38.97;102491.34;4159621;28;20029;-41
2021/05/31 04:16:47;;;;;;;4.43;3.55;;;;;;;19.48;38.93;102487.16;4161516;28;20545;-41
2021/05/31 04:18:47;;;;;;;3.20;2.90;;;;;;;19.52;38.77;102493.88;4169277;28;20283;-42
2021/05/31 04:20:48;;;;;;;3.05;2.85;;;;;;;19.46;38.93;102496.81;4164134;28;20044;-41
2021/05/31 04:22:48;;;;;;;6.05;2.45;;;;;;;19.42;39.02;102497.28;4159675;28;20514;-41
2021/05/31 04:24:49;;;;;;;3.78;3.17;;;;;;;19.35;39.35;102491.00;4164154;28;20119;-41
2021/05/31 04:26:49;;;;;;;3.30;3.10;;;;;;;19.41;39.10;102494.75;4165930;28;21175;-41
2021/05/31 04:28:50;;;;;;;3.58;3.28;;;;;;;19.37;39.14;102494.41;4168443;28;20033;-41
2021/05/31 04:30:50;;;;;;;4.07;3.70;;;;;;;19.37;39.28;102496.31;4165800;28;20043;-41
2021/05/31 04:32:51;;;;;;;3.53;3.22;;;;;;;19.42;39.16;102488.97;4162930;28;20033;-42
2021/05/31 04:34:51;;;;;;;3.60;3.40;;;;;;;19.28;39.09;102475.56;4159638;28;20030;-42
2021/05/31 04:36:51;;;;;;;3.95;2.95;;;;;;;19.36;39.24;102494.66;4167225;28;20041;-41
2021/05/31 04:38:52;;;;;;;3.15;2.95;;;;;;;19.27;39.23;102488.59;4162343;28;20431;-41
2021/05/31 04:40:53;;;;;;;2.70;2.50;;;;;;;19.26;39.27;102472.19;4170576;28;20079;-42
2021/05/31 04:42:53;;;;;;;3.20;2.95;;;;;;;19.34;39.33;102488.47;4169438;28;20029;-41
2021/05/31 04:44:53;;;;;;;2.53;2.33;;;;;;;19.23;39.26;102485.47;4172634;28;20029;-42
2021/05/31 04:46:54;;;;;;;3.53;3.22;;;;;;;19.26;39.24;102478.56;4166451;28;20396;-42
2021/05/31 04:48:54;;;;;;;4.40;3.05;;;;;;;19.31;39.31;102480.63;4166823;28;20033;-42
2021/05/31 04:50:58;;;;;;;3.17;2.97;;;;;;;19.19;39.43;102478.72;4163888;28;20029;-41
2021/05/31 04:52:59;;;;;;;3.53;2.83;;;;;;;19.20;39.61;102483.19;4168717;28;20494;-42
2021/05/31 04:54:59;;;;;;;3.33;3.03;;;;;;;19.22;39.40;102488.50;4170742;28;20021;-42
2021/05/31 04:57:00;;;;;;;2.47;2.33;;;;;;;19.29;39.25;102482.81;4162412;28;20475;-41
2021/05/31 04:59:00;;;;;;;3.03;2.60;;;;;;;19.27;39.10;102487.78;4161953;28;20041;-40
2021/05/31 05:01:01;;;;;;;3.00;2.50;;;;;;;19.30;39.04;102482.56;4171588;28;20032;-40
2021/05/31 05:03:01;;;;;;;2.70;2.50;;;;;;;19.23;39.08;102479.94;4167380;28;20026;-43
2021/05/31 05:05:02;;;;;;;2.67;2.47;;;;;;;19.16;38.99;102470.03;4167716;28;20021;-41
2021/05/31 05:07:03;;;;;;;2.70;2.50;;;;;;;19.33;38.80;102479.31;4163285;28;20392;-42
2021/05/31 05:09:03;;;;;;;3.00;2.70;;;;;;;19.22;39.24;102483.78;4167863;28;20096;-42
2021/05/31 05:11:04;;;;;;;2.75;2.55;;;;;;;19.20;39.16;102485.97;4174745;28;20472;-41
2021/05/31 05:13:05;;;;;;;3.28;2.35;;;;;;;19.24;39.25;102481.59;4165004;28;20033;-42
2021/05/31 05:15:06;;;;;;;4.47;2.67;;;;;;;19.34;39.07;102485.69;4173032;28;20037;-41
2021/05/31 05:17:06;;;;;;;3.13;2.70;;;;;;;19.41;38.70;102472.53;4176204;28;20067;-42
2021/05/31 05:19:07;;;;;;;3.47;2.80;;;;;;;19.33;38.80;102484.03;4159039;28;20041;-43
2021/05/31 05:21:08;;;;;;;2.85;2.60;;;;;;;19.39;38.59;102481.13;4172295;28;20083;-41
2021/05/31 05:23:08;;;;;;;3.47;2.65;;;;;;;19.34;38.70;102477.38;4163334;28;20029;-40
2021/05/31 05:25:10;;;;;;;2.95;2.30;;;;;;;19.39;38.88;102477.50;4173764;28;20036;-40
2021/05/31 05:27:10;;;;;;;2.85;2.13;;;;;;;19.45;38.70;102475.66;4168571;28;20086;-40
2021/05/31 05:29:11;;;;;;;2.88;2.25;;;;;;;19.47;38.51;102479.91;4168724;28;20035;-40
2021/05/31 05:31:12;;;;;;;3.95;2.92;;;;;;;19.50;38.40;102475.81;4170366;28;20090;-40
2021/05/31 05:33:12;;;;;;;4.40;2.38;;;;;;;19.48;38.37;102476.03;4167125;28;20042;-40
2021/05/31 05:37:27;;;;;;;3.63;2.67;;;;;;;19.41;38.85;102464.22;4165455;28;20052;-41
2021/05/31 05:44:47;;;;;;;3.13;2.80;;;;;;;19.44;38.77;102460.94;4168668;28;20549;-40
2021/05/31 05:48:17;;;;;;;2.83;2.63;;;;;;;19.40;38.50;102465.28;4173596;28;20034;-41
2021/05/31 05:50:20;;;;;;;3.70;3.10;;;;;;;19.44;38.71;102460.94;4165116;28;20030;-40
2021/05/31 05:52:20;;;;;;;4.22;3.00;;;;;;;19.35;39.02;102452.13;4166417;28;20018;-40
2021/05/31 05:54:20;;;;;;;3.17;2.67;;;;;;;19.45;38.64;102459.88;4176097;28;20044;-40
2021/05/31 05:56:21;;;;;;;3.47;2.38;;;;;;;19.46;38.77;102463.47;4166888;28;20064;-41
2021/05/31 05:58:27;;;;;;;6.20;2.88;;;;;;;19.42;38.91;102466.75;4171907;28;20049;-40
2021/05/31 06:00:29;;;;;;;4.57;2.65;;;;;;;19.44;38.68;102457.34;4167078;28;20029;-41
2021/05/31 06:02:29;;;;;;;4.38;2.78;;;;;;;19.42;38.62;102465.91;4167991;28;20056;-41
2021/05/31 06:04:30;;;;;;;2.58;2.38;;;;;;;19.48;38.48;102467.72;4166455;28;20042;-43
2021/05/31 06:06:30;;;;;;;2.85;2.60;;;;;;;19.48;38.68;102464.06;4165391;28;20483;-41
2021/05/31 06:08:31;;;;;;;2.75;2.50;;;;;;;19.43;38.97;102470.34;4166879;28;20127;-41
2021/05/31 06:10:32;;;;;;;4.30;2.60;;;;;;;19.44;39.05;102472.06;4167622;28;20506;-41
2021/05/31 06:12:33;;;;;;;5.43;2.58;;;;;;;19.48;38.77;102464.94;4165845;28;20029;-41
2021/05/31 06:14:33;;;;;;;3.10;2.72;;;;;;;19.47;38.40;102463.25;4170446;28;20819;-41
2021/05/31 06:16:34;;;;;;;4.30;2.90;;;;;;;19.44;38.71;102469.28;4171195;28;20034;-42
2021/05/31 06:18:34;;;;;;;5.28;2.72;;;;;;;19.40;38.78;102463.38;4165401;28;20411;-41
2021/05/31 06:20:35;;;;;;;6.57;2.78;;;;;;;19.37;38.83;102449.13;4167644;28;20030;-40
2021/05/31 06:22:40;;;;;;;5.95;2.92;;;;;;;19.32;38.88;102460.94;4166172;28;20040;-41
2021/05/31 06:24:43;;;;;;;4.65;2.90;;;;;;;19.29;38.90;102460.59;4163564;28;20033;-42
2021/05/31 06:26:43;;;;;;;8.43;3.47;;;;;;;19.29;39.09;102466.16;4163219;28;20458;-41
2021/05/31 06:28:44;;;;;;;10.38;2.90;;;;;;;19.33;39.02;102457.09;4166289;28;20041;-41
2021/05/31 06:30:44;;;;;;;9.05;3.13;;;;;;;19.32;39.43;102462.88;4169921;28;20058;-43
2021/05/31 06:32:45;;;;;;;6.30;2.67;;;;;;;19.18;39.57;102457.56;4167518;28;20044;-41
2021/05/31 06:34:45;;;;;;;6.78;3.20;;;;;;;19.19;39.69;102459.28;4164948;28;20053;-41
2021/05/31 06:36:48;;;;;;;5.85;3.13;;;;;;;19.13;39.95;102457.47;4169171;28;20040;-42
2021/05/31 06:38:48;;;;;;;11.30;3.20;;;;;;;19.18;39.63;102457.56;4163329;28;20069;-42
2021/05/31 06:40:50;;;;;;;3.22;2.92;;;;;;;19.14;39.81;102448.06;4171220;28;20379;-42
2021/05/31 06:42:51;;;;;;;6.55;3.13;;;;;;;19.13;39.62;102465.78;4166421;28;20075;-42
2021/05/31 06:44:51;;;;;;;5.30;2.70;;;;;;;19.11;39.88;102454.09;4165475;28;20411;-43
2021/05/31 06:46:52;;;;;;;8.35;3.30;;;;;;;19.15;39.58;102455.28;4160762;28;20026;-42
2021/05/31 06:48:52;;;;;;;7.00;3.38;;;;;;;19.19;39.59;102462.06;4167627;28;20026;-42
2021/05/31 06:50:53;;;;;;;6.28;3.63;;;;;;;19.20;39.10;102463.75;4170049;28;20033;-45
2021/05/31 06:52:53;;;;;;;7.60;4.13;;;;;;;19.12;40.44;102458.53;4173738;28;20025;-42
2021/05/31 06:54:54;;;;;;;2.88;2.55;;;;;;;19.21;39.39;102453.47;4166845;28;20055;-42
2021/05/31 06:56:54;;;;;;;5.22;3.75;;;;;;;19.15;40.07;102460.00;4165323;28;20036;-46
2021/05/31 06:58:55;;;;;;;8.15;3.88;;;;;;;19.32;39.33;102460.13;4162882;28;20057;-42
2021/05/31 07:00:55;;;;;;;11.40;3.42;;;;;;;19.38;39.40;102459.97;4169129;28;20025;-42
2021/05/31 07:02:56;;;;;;;6.53;3.15;;;;;;;19.37;38.86;102458.31;4162854;28;20040;-41
2021/05/31 07:04:57;;;;;;;5.40;3.28;;;;;;;19.36;39.34;102455.78;4166333;28;20025;-42
2021/05/31 07:06:57;;;;;;;5.85;2.83;;;;;;;19.36;38.49;102453.00;4169245;28;20025;-44
2021/05/31 07:08:58;;;;;;;4.90;3.08;;;;;;;19.41;39.22;102461.44;4162890;28;20029;-43
2021/05/31 07:11:02;;;;;;;4.00;3.08;;;;;;;19.46;39.00;102460.69;4169468;28;20398;-44
2021/05/31 07:13:03;;;;;;;6.15;3.35;;;;;;;19.40;38.96;102460.59;4171903;28;20053;-44
2021/05/31 07:15:05;;;;;;;4.10;2.90;;;;;;;19.55;38.90;102470.34;4172329;28;20037;-44
2021/05/31 07:17:08;;;;;;;6.70;3.13;;;;;;;19.42;38.72;102452.84;4167548;28;20390;-42
2021/05/31 07:19:08;;;;;;;4.20;3.08;;;;;;;19.52;39.33;102462.50;4164335;28;20037;-41
2021/05/31 07:21:09;;;;;;;8.10;3.20;;;;;;;19.57;39.61;102462.59;4164337;28;20099;-42
2021/05/31 07:23:09;;;;;;;5.32;3.80;;;;;;;19.59;39.79;102458.50;4167059;28;20060;-42
2021/05/31 07:25:13;;;;;;;5.72;3.28;;;;;;;19.65;39.78;102459.47;4164317;28;20472;-43
2021/05/31 07:27:14;;;;;;;6.07;3.50;;;;;;;19.64;40.39;102465.28;4163770;28;20375;-43
2021/05/31 07:29:14;;;;;;;3.97;3.22;;;;;;;19.62;40.19;102453.53;4164185;28;20038;-44
2021/05/31 07:31:14;;;;;;;4.10;3.67;;;;;;;19.63;40.02;102455.25;4163751;28;20709;-44
2021/05/31 07:33:15;;;;;;;3.55;3.25;;;;;;;19.67;40.02;102451.72;4163718;28;20049;-43
2021/05/31 07:35:17;;;;;;;9.07;3.97;;;;;;;19.70;40.38;102451.25;4163042;28;20576;-42
2021/05/31 07:37:18;;;;;;;10.63;4.38;;;;;;;19.71;40.02;102439.03;4162104;28;20039;-44
2021/05/31 07:39:18;;;;;;;7.05;3.67;;;;;;;19.73;40.33;102449.91;4162871;28;20649;-45
2021/05/31 07:41:19;;;;;;;7.03;3.90;;;;;;;19.78;40.55;102461.13;4163396;28;20029;-45
2021/05/31 07:43:20;;;;;;;4.50;3.67;;;;;;;19.79;39.89;102446.16;4161289;28;20382;-46
2021/05/31 07:45:20;;;;;;;6.32;4.22;;;;;;;19.76;40.52;102458.59;4160533;28;20108;-45
2021/05/31 07:47:21;;;;;;;5.68;4.13;;;;;;;19.76;40.31;102458.59;4167056;28;20037;-46
2021/05/31 07:49:21;;;;;;;20.08;4.10;;;;;;;19.83;39.28;102458.44;4163260;28;20043;-48
2021/05/31 07:51:22;;;;;;;6.15;4.15;;;;;;;19.76;39.61;102450.25;4165100;28;20031;-44
2021/05/31 07:53:23;;;;;;;4.25;3.80;;;;;;;19.81;39.76;102441.19;4169240;28;20073;-45
2021/05/31 07:55:23;;;;;;;5.40;4.60;;;;;;;19.87;40.30;102450.50;4165760;28;20030;-44
2021/05/31 07:57:24;;;;;;;5.70;4.25;;;;;;;19.84;40.53;102443.50;4158818;28;20041;-45
2021/05/31 07:59:25;;;;;;;5.88;4.63;;;;;;;19.85;40.47;102447.97;4168428;28;20034;-43
2021/05/31 08:01:25;;;;;;;4.00;3.70;;;;;;;19.90;39.76;102444.44;4165248;28;20053;-44
2021/05/31 08:03:26;;;;;;;5.63;3.65;;;;;;;19.92;39.91;102445.88;4160871;28;20293;-42
2021/05/31 08:05:27;;;;;;;7.03;4.40;;;;;;;19.90;40.54;102422.22;4155041;28;20041;-43
2021/05/31 08:07:28;;;;;;;5.60;4.05;;;;;;;19.95;40.08;102441.75;4155791;28;20037;-44
2021/05/31 08:09:28;;;;;;;5.50;3.75;;;;;;;19.87;39.87;102429.09;4163197;28;20417;-44
2021/05/31 08:11:29;;;;;;;6.63;4.45;;;;;;;20.03;39.92;102441.34;4161051;28;20094;-44
2021/05/31 08:13:29;;;;;;;7.25;4.10;;;;;;;19.97;39.28;102433.19;4170458;28;20766;-45
2021/05/31 08:15:30;;;;;;;4.68;4.25;;;;;;;19.85;39.89;102436.84;4163661;28;20514;-44
2021/05/31 08:17:30;;;;;;;8.55;3.72;;;;;;;19.80;39.98;102425.59;4166692;28;20049;-44
2021/05/31 08:19:32;;;;;;;5.82;3.85;;;;;;;19.85;39.73;102439.63;4169762;28;20029;-44
2021/05/31 08:21:32;;;;;;;6.72;3.40;;;;;;;19.90;39.69;102433.34;4140057;28;20028;-43
2021/05/31 08:23:33;;;;;;;5.28;3.72;;;;;;;19.81;40.16;102440.34;4161892;28;20444;-44
2021/05/31 08:25:34;;;;;;;4.05;2.92;;;;;;;19.82;38.85;102425.34;4169735;28;20684;-45
2021/05/31 08:27:35;;;;;;;5.35;3.40;;;;;;;19.92;39.08;102436.69;4160612;28;20116;-43
2021/05/31 08:29:35;;;;;;;6.82;4.00;;;;;;;19.74;39.53;102401.56;4168467;28;20057;-43
2021/05/31 08:31:36;;;;;;;2.90;2.70;;;;;;;20.03;39.31;102429.41;4163955;28;20033;-43
2021/05/31 08:33:36;;;;;;;4.03;3.38;;;;;;;20.01;39.38;102443.56;4165063;28;20041;-45
2021/05/31 08:35:38;;;;;;;3.83;2.80;;;;;;;20.03;38.88;102435.81;4165391;28;20045;-44
2021/05/31 08:37:39;;;;;;;3.30;2.95;;;;;;;20.03;39.74;102437.75;4169868;28;20025;-43
2021/05/31 08:39:41;;;;;;;3.05;2.72;;;;;;;19.98;38.81;102429.31;4162419;28;20033;-45
2021/05/31 08:41:42;;;;;;;4.07;3.00;;;;;;;20.05;39.38;102430.00;4171673;28;20112;-45
2021/05/31 08:43:42;;;;;;;3.88;3.33;;;;;;;20.07;39.38;102433.38;4166650;28;20464;-45
2021/05/31 08:45:43;;;;;;;3.28;2.97;;;;;;;20.12;38.84;102430.69;4164100;28;20176;-44
2021/05/31 08:47:46;;;;;;;6.53;3.40;;;;;;;20.04;39.47;102422.75;4166218;28;20033;-43
2021/05/31 08:49:47;;;;;;;3.90;2.88;;;;;;;20.07;39.10;102427.81;4166445;28;20029;-42
2021/05/31 08:51:47;;;;;;;3.40;3.10;;;;;;;20.13;38.96;102435.19;4165727;28;20033;-43
2021/05/31 08:53:48;;;;;;;2.83;2.63;;;;;;;20.15;39.00;102435.75;4162142;28;20426;-45
2021/05/31 08:55:49;;;;;;;2.70;2.40;;;;;;;20.13;38.85;102421.28;4165869;28;20038;-44
2021/05/31 08:57:50;;;;;;;12.00;2.72;;;;;;;20.29;39.05;102426.00;4153491;28;20033;-43
2021/05/31 08:59:50;;;;;;;3.95;2.70;;;;;;;20.33;39.17;102434.72;4166937;28;20060;-42
2021/05/31 09:01:51;;;;;;;2.67;2.47;;;;;;;20.28;38.23;102424.34;4167966;28;20035;-43
2021/05/31 09:03:55;;;;;;;3.47;2.90;;;;;;;20.30;39.31;102405.44;4166092;28;20283;-42
2021/05/31 09:05:59;;;;;;;3.58;3.03;;;;;;;20.28;38.69;102413.22;4169020;28;20490;-43
2021/05/31 09:08:11;;;;;;;2.72;2.53;;;;;;;20.36;39.51;102423.09;4163853;28;20038;-42
2021/05/31 09:10:12;;;;;;;4.18;3.05;;;;;;;20.41;39.06;102411.19;4164510;28;20477;-43
2021/05/31 09:12:20;;;;;;;4.15;3.17;;;;;;;20.42;38.30;102418.44;4166042;28;20037;-44
2021/05/31 09:14:21;;;;;;;3.92;2.42;;;;;;;20.40;38.62;102424.25;4171129;28;20032;-44
2021/05/31 09:16:24;;;;;;;2.85;2.45;;;;;;;20.40;39.40;102424.25;4165233;28;20044;-45
2021/05/31 09:18:25;;;;;;;4.53;2.85;;;;;;;20.38;38.52;102406.16;4167980;28;20036;-46
2021/05/31 09:20:26;;;;;;;3.20;2.67;;;;;;;20.45;39.15;102417.94;4168190;28;20037;-45
2021/05/31 09:22:28;;;;;;;2.65;2.17;;;;;;;20.50;38.65;102420.81;4168878;28;20033;-45
2021/05/31 09:24:29;;;;;;;2.72;2.53;;;;;;;20.59;38.46;102421.25;4169710;28;20055;-46
2021/05/31 09:26:30;;;;;;;2.67;2.45;;;;;;;20.52;38.66;102417.78;4170050;28;20034;-46
2021/05/31 09:28:31;;;;;;;2.53;2.30;;;;;;;20.51;38.82;102418.88;4165220;28;20060;-46
2021/05/31 09:30:39;;;;;;;2.95;2.30;;;;;;;20.67;39.14;102416.13;4166437;28;20051;-47
2021/05/31 09:32:50;;;;;;;1.90;1.80;;;;;;;20.69;38.26;102413.09;4167106;28;20383;-45
2021/05/31 09:35:01;;;;;;;2.85;2.03;;;;;;;20.74;38.88;102410.38;4163795;28;20063;-43
2021/05/31 09:37:03;;;;;;;4.22;2.50;;;;;;;20.70;38.51;102413.91;4169479;28;20574;-44
2021/05/31 09:39:05;;;;;;;3.03;2.25;;;;;;;20.64;38.64;102404.66;4166207;28;20048;-44
2021/05/31 09:41:06;;;;;;;4.45;2.53;;;;;;;20.82;39.36;102403.53;4163869;28;20403;-42
2021/05/31 09:43:06;;;;;;;2.55;2.35;;;;;;;20.73;39.17;102389.25;4170835;28;20038;-43
2021/05/31 09:45:09;;;;;;;2.50;2.30;;;;;;;20.89;38.84;102401.44;4169066;28;20479;-45
2021/05/31 09:47:10;;;;;;;2.40;2.20;;;;;;;20.90;39.05;102402.28;4166744;28;20084;-44